Aeroporto :
LOGIN :

Iscrizione | Disclaimer

   EN    FR    IT 

 










Sommario :    VFR   VFR Marginale   IFR   IFR Intensivo   IFR Molto Intensivo
Visibilità : 
Base nubi : 
>= 8 km
>= 3000ft
5 / 8 km
1000 / 3000 ft
1500m / 5 km
500 / 1000 ft
800 / 1500m
200 / 500 ft
< 800m
< 200 ft
Simboli :   Temporali  Nebbia  Neve Forte  Precipitazioni Forti  Vento > 20 kt
SIGMETs :   Varie  Temporali  Ghiacco  Turbolenza  Onda orograficha  Ceneri Vulcaniche






- Altitudine del aeroporto : 288 ft
- Codice IATA : BZZ


EGVN - RAF Brize Norton

ULTIMO METAR :
  • 230150Z 19008KT 9999 SCT012 BKN034 08/07 Q1015 TEMPO FEW012 BKN030

METARs OBSOLETI :
  • 230106Z 21006KT 8000 -RADZ SCT010 BKN020 08/07 Q1017 NOSIG RMK GRN GRN
  • 230050Z 22005KT 9999 -RA FEW008 BKN030 08/07 Q1017 BECMG BKN010
  • 230020Z 22007KT 9999 -RA SCT008 SCT024 BKN050 08/07 Q1018 RERA REDZ NOSIG
  • 222350Z 23006KT 5000 RADZ BKN007 BKN016 08/07 Q1019 TEMPO 4000 BKN006

TAF AMD TAF EGVN
Valido dal 23 a 00 ore il 24 a 00 ore UTC


222347Z 2300/2324 24015KT 9999 BKN020
BECMG 2300/2301 21010KT BKN010
TEMPO 2300/2305 4000 RA BKN006
BECMG 2303/2305 24020G35KT
PROB40
TEMPO 2305/2312 6000 -RADZ
BECMG 2310/2312 27015G25KT SCT025
PROB30
TEMPO 2312/2315 -SHRA SCT023
BECMG 2315/2317 30010KT



MetMap, La meteo Aeronautica in un colpo d'occhio ! - Copyright ORBIFLY Dicembre 2007 - Disclaimer

ORBIFLY MET'MAP TEAM :

Programmazione e sviluppo : Alexandra Zaïnal
Concezione : Baudouin d'Aumeries
Aiuto per la programmazione : Marc-Olivier Méhu
Supporto tecnico e logistico : Manuel Goepfert
Aiuto per la traduzione : Arnaldo La Scala

Contatto : metmap@orbifly.com




FONTI E CREDITI :

   NOAA